Dog Valley, California Weather observations

Data are for 10 minute period ending at time listed.
 Day   Time    Ave.   Ave.  Ave.  Vector   Max.   Total    Solar   
  of    of     Air    Rel.  Wind   Wind    Wind  Precip.   Rad.    
Year   Day     Temp.  Hum.  Speed  Dir.    Gust                    
2015   (PST)    F      %     mph   deg.    mph     in.     W/m2    
------------------------------------------------------------------- 
  28   23:00   27.0    96    0.0   278      0.0    9.63       0  
  29    0:00   27.0    96    0.0   283      2.0    9.63       0  
  29    1:00   26.0    96    0.0   218      3.0    9.63       0  
  29    2:00   27.0    96    0.0   326      3.0    9.63       0  
  29    3:00   26.0    95    0.0   247      2.0    9.63       0  
  29    4:00   26.0    96    0.0    72      2.0    9.63       0  
  29    5:00   26.0    97    0.0   232      2.0    9.63       0  
  29    6:00   26.0    96    0.0   335      2.0    9.63       0  
  29    7:00   26.0    97    0.0   326      2.0    9.63       0  
  29    8:00   28.0    97    0.0   325      0.0    9.63       7  
  29    9:00   31.0    97    0.0   352      3.0    9.63      50  
  29   10:00   38.0    88    0.0    89      3.0    9.63     113  
  29   11:00   44.0    68    1.0   135      6.0    9.63     107  
  29   12:00   44.0    64    1.0   167      5.0    9.63     239  
  29   13:00   46.0    61    1.0    72      6.0    9.63     427  
  29   14:00   47.0    58    1.0   118      7.0    9.63     394  
  29   15:00   48.0    57    1.0   101      6.0    9.63     179  
  29   16:00   47.0    58    1.0   105      5.0    9.63     114  
  29   17:00   44.0    63    0.0    82      3.0    9.63      37  
  29   18:00   42.0    70    0.0   185      3.0    9.63       3  
  29   19:00   41.0    72    0.0   268      3.0    9.63       0  
  29   20:00   39.0    76    0.0   266      1.0    9.63       0  
  29   21:00   38.0    79    0.0   285      1.0    9.63       0  
  29   22:00   37.0    82    0.0   277      0.0    9.63       0  

Return to Dog Valley, California graphs page.


Western Regional Climate Center,wrcc@dri.edu